sensor_id;sensor_type;location;lat;lon;timestamp;pressure;altitude;pressure_sealevel;temperature;humidity
16580;BME280;8402;51.466;6.806;2023-08-24T00:00:40;101498.41;;;22.63;71.34
16580;BME280;8402;51.466;6.806;2023-08-24T00:03:10;101503.50;;;22.58;71.36
16580;BME280;8402;51.466;6.806;2023-08-24T00:05:40;101497.91;;;22.54;71.57
16580;BME280;8402;51.466;6.806;2023-08-24T00:08:10;101498.25;;;22.49;71.45
16580;BME280;8402;51.466;6.806;2023-08-24T00:10:44;101490.72;;;22.46;71.53
16580;BME280;8402;51.466;6.806;2023-08-24T00:13:14;101490.25;;;22.40;71.37
16580;BME280;8402;51.466;6.806;2023-08-24T00:15:45;101496.09;;;22.35;71.73
16580;BME280;8402;51.466;6.806;2023-08-24T00:18:15;101493.31;;;22.32;72.38
16580;BME280;8402;51.466;6.806;2023-08-24T00:20:46;101486.91;;;22.28;72.10
16580;BME280;8402;51.466;6.806;2023-08-24T00:23:16;101489.28;;;22.25;72.06
16580;BME280;8402;51.466;6.806;2023-08-24T00:25:49;101480.13;;;22.21;72.64
16580;BME280;8402;51.466;6.806;2023-08-24T00:28:19;101475.34;;;22.18;72.58
16580;BME280;8402;51.466;6.806;2023-08-24T00:30:49;101465.84;;;22.16;72.53
16580;BME280;8402;51.466;6.806;2023-08-24T00:33:19;101471.31;;;22.12;72.63
16580;BME280;8402;51.466;6.806;2023-08-24T00:35:49;101480.72;;;22.08;72.90
16580;BME280;8402;51.466;6.806;2023-08-24T00:38:18;101474.38;;;22.07;73.21
16580;BME280;8402;51.466;6.806;2023-08-24T00:40:51;101472.00;;;22.06;73.30
16580;BME280;8402;51.466;6.806;2023-08-24T00:43:21;101475.09;;;22.01;72.83
16580;BME280;8402;51.466;6.806;2023-08-24T00:45:52;101469.50;;;21.97;73.04
16580;BME280;8402;51.466;6.806;2023-08-24T00:48:23;101484.09;;;21.94;73.57
16580;BME280;8402;51.466;6.806;2023-08-24T00:50:57;101468.66;;;21.93;73.77
16580;BME280;8402;51.466;6.806;2023-08-24T00:53:30;101463.13;;;21.93;73.63
16580;BME280;8402;51.466;6.806;2023-08-24T00:56:03;101466.34;;;21.95;73.52
16580;BME280;8402;51.466;6.806;2023-08-24T00:58:34;101482.13;;;21.94;73.81
16580;BME280;8402;51.466;6.806;2023-08-24T01:01:04;101460.38;;;21.93;73.59
16580;BME280;8402;51.466;6.806;2023-08-24T01:03:34;101457.59;;;21.93;73.79
16580;BME280;8402;51.466;6.806;2023-08-24T01:06:04;101459.56;;;21.92;74.26
16580;BME280;8402;51.466;6.806;2023-08-24T01:08:34;101458.78;;;21.92;74.17
16580;BME280;8402;51.466;6.806;2023-08-24T01:11:12;101448.09;;;21.90;74.20
16580;BME280;8402;51.466;6.806;2023-08-24T01:13:54;101448.50;;;21.89;73.52
16580;BME280;8402;51.466;6.806;2023-08-24T01:16:29;101442.56;;;21.87;74.41
16580;BME280;8402;51.466;6.806;2023-08-24T01:19:02;101443.66;;;21.82;74.44
16580;BME280;8402;51.466;6.806;2023-08-24T01:21:33;101442.00;;;21.78;74.50
16580;BME280;8402;51.466;6.806;2023-08-24T01:24:12;101455.00;;;21.74;73.97
16580;BME280;8402;51.466;6.806;2023-08-24T01:26:46;101459.66;;;21.69;74.67
16580;BME280;8402;51.466;6.806;2023-08-24T01:29:18;101456.47;;;21.67;75.05
16580;BME280;8402;51.466;6.806;2023-08-24T01:31:49;101464.34;;;21.65;75.01
16580;BME280;8402;51.466;6.806;2023-08-24T01:34:19;101463.47;;;21.61;75.04
16580;BME280;8402;51.466;6.806;2023-08-24T01:36:48;101469.75;;;21.58;75.20
16580;BME280;8402;51.466;6.806;2023-08-24T01:39:24;101466.56;;;21.56;75.28
16580;BME280;8402;51.466;6.806;2023-08-24T01:42:05;101459.06;;;21.57;74.72
16580;BME280;8402;51.466;6.806;2023-08-24T01:44:40;101453.50;;;21.53;75.45
16580;BME280;8402;51.466;6.806;2023-08-24T01:47:12;101433.31;;;21.49;74.97
16580;BME280;8402;51.466;6.806;2023-08-24T01:49:43;101437.63;;;21.47;75.67
16580;BME280;8402;51.466;6.806;2023-08-24T01:52:13;101436.41;;;21.44;75.77
16580;BME280;8402;51.466;6.806;2023-08-24T01:54:44;101435.16;;;21.41;75.71
16580;BME280;8402;51.466;6.806;2023-08-24T01:57:17;101427.63;;;21.38;76.11
16580;BME280;8402;51.466;6.806;2023-08-24T01:59:47;101430.31;;;21.35;76.15
16580;BME280;8402;51.466;6.806;2023-08-24T02:02:16;101434.63;;;21.32;76.55
16580;BME280;8402;51.466;6.806;2023-08-24T02:04:46;101432.25;;;21.31;76.33
16580;BME280;8402;51.466;6.806;2023-08-24T02:07:16;101439.38;;;21.32;76.52
16580;BME280;8402;51.466;6.806;2023-08-24T02:09:46;101439.38;;;21.32;76.40
16580;BME280;8402;51.466;6.806;2023-08-24T02:12:19;101437.03;;;21.34;76.40
16580;BME280;8402;51.466;6.806;2023-08-24T02:14:48;101428.38;;;21.35;76.70
16580;BME280;8402;51.466;6.806;2023-08-24T02:17:18;101436.66;;;21.35;76.39
16580;BME280;8402;51.466;6.806;2023-08-24T02:19:48;101427.56;;;21.35;76.50
16580;BME280;8402;51.466;6.806;2023-08-24T02:22:18;101413.41;;;21.36;76.45
16580;BME280;8402;51.466;6.806;2023-08-24T02:24:48;101416.59;;;21.38;76.71
16580;BME280;8402;51.466;6.806;2023-08-24T02:27:20;101409.53;;;21.41;76.11
16580;BME280;8402;51.466;6.806;2023-08-24T02:29:50;101424.50;;;21.40;76.20
16580;BME280;8402;51.466;6.806;2023-08-24T02:32:20;101423.72;;;21.39;75.98
16580;BME280;8402;51.466;6.806;2023-08-24T02:34:50;101429.59;;;21.38;76.16
16580;BME280;8402;51.466;6.806;2023-08-24T02:37:20;101426.84;;;21.38;76.34
16580;BME280;8402;51.466;6.806;2023-08-24T02:39:50;101422.91;;;21.39;76.00
16580;BME280;8402;51.466;6.806;2023-08-24T02:42:23;101417.69;;;21.34;76.28
16580;BME280;8402;51.466;6.806;2023-08-24T02:44:53;101410.91;;;21.28;76.40
16580;BME280;8402;51.466;6.806;2023-08-24T02:47:23;101417.13;;;21.25;76.56
16580;BME280;8402;51.466;6.806;2023-08-24T02:49:53;101406.81;;;21.22;76.67
16580;BME280;8402;51.466;6.806;2023-08-24T02:52:23;101415.47;;;21.20;76.50
16580;BME280;8402;51.466;6.806;2023-08-24T02:54:53;101419.00;;;21.17;76.68
16580;BME280;8402;51.466;6.806;2023-08-24T02:57:25;101420.16;;;21.16;76.90
16580;BME280;8402;51.466;6.806;2023-08-24T02:59:55;101429.94;;;21.13;77.05
16580;BME280;8402;51.466;6.806;2023-08-24T03:02:25;101444.94;;;21.12;77.36
16580;BME280;8402;51.466;6.806;2023-08-24T03:04:55;101438.97;;;21.10;77.15
16580;BME280;8402;51.466;6.806;2023-08-24T03:07:25;101418.88;;;21.10;77.29
16580;BME280;8402;51.466;6.806;2023-08-24T03:09:54;101407.75;;;21.06;77.19
16580;BME280;8402;51.466;6.806;2023-08-24T03:12:27;101412.06;;;21.04;77.26
16580;BME280;8402;51.466;6.806;2023-08-24T03:14:57;101427.03;;;21.03;77.41
16580;BME280;8402;51.466;6.806;2023-08-24T03:17:27;101413.63;;;21.01;77.76
16580;BME280;8402;51.466;6.806;2023-08-24T03:19:57;101412.00;;;21.00;77.45
16580;BME280;8402;51.466;6.806;2023-08-24T03:22:26;101410.41;;;20.99;78.04
16580;BME280;8402;51.466;6.806;2023-08-24T03:24:56;101414.34;;;20.98;78.12
16580;BME280;8402;51.466;6.806;2023-08-24T03:27:29;101412.38;;;20.99;78.04
16580;BME280;8402;51.466;6.806;2023-08-24T03:29:59;101422.59;;;20.98;78.17
16580;BME280;8402;51.466;6.806;2023-08-24T03:32:31;101423.78;;;20.97;78.28
16580;BME280;8402;51.466;6.806;2023-08-24T03:35:01;101421.03;;;20.97;78.27
16580;BME280;8402;51.466;6.806;2023-08-24T03:37:31;101428.53;;;21.00;78.50
16580;BME280;8402;51.466;6.806;2023-08-24T03:40:06;101432.56;;;21.03;78.64
16580;BME280;8402;51.466;6.806;2023-08-24T03:42:39;101436.53;;;21.05;78.66
16580;BME280;8402;51.466;6.806;2023-08-24T03:45:09;101446.03;;;21.08;78.67
16580;BME280;8402;51.466;6.806;2023-08-24T03:47:39;101438.97;;;21.10;78.86
16580;BME280;8402;51.466;6.806;2023-08-24T03:50:09;101440.56;;;21.11;78.61
16580;BME280;8402;51.466;6.806;2023-08-24T03:52:39;101435.47;;;21.13;78.79
16580;BME280;8402;51.466;6.806;2023-08-24T03:55:09;101428.06;;;21.17;79.35
16580;BME280;8402;51.466;6.806;2023-08-24T03:57:41;101423.38;;;21.22;79.16
16580;BME280;8402;51.466;6.806;2023-08-24T04:00:13;101410.75;;;21.21;79.16
16580;BME280;8402;51.466;6.806;2023-08-24T04:02:44;101396.50;;;21.15;79.44
16580;BME280;8402;51.466;6.806;2023-08-24T04:05:15;101391.31;;;21.13;79.53
16580;BME280;8402;51.466;6.806;2023-08-24T04:07:45;101377.97;;;21.15;79.78
16580;BME280;8402;51.466;6.806;2023-08-24T04:10:15;101383.91;;;21.17;79.99
16580;BME280;8402;51.466;6.806;2023-08-24T04:12:48;101381.56;;;21.20;80.07
16580;BME280;8402;51.466;6.806;2023-08-24T04:15:18;101377.63;;;21.21;79.72
16580;BME280;8402;51.466;6.806;2023-08-24T04:17:48;101377.63;;;21.21;79.95
16580;BME280;8402;51.466;6.806;2023-08-24T04:20:18;101387.09;;;21.20;79.84
16580;BME280;8402;51.466;6.806;2023-08-24T04:22:48;101392.59;;;21.20;79.98
16580;BME280;8402;51.466;6.806;2023-08-24T04:25:18;101367.34;;;21.17;79.98
16580;BME280;8402;51.466;6.806;2023-08-24T04:27:50;101367.66;;;21.12;80.77
16580;BME280;8402;51.466;6.806;2023-08-24T04:30:20;101375.09;;;21.08;80.85
16580;BME280;8402;51.466;6.806;2023-08-24T04:32:50;101371.91;;;21.06;81.29
16580;BME280;8402;51.466;6.806;2023-08-24T04:35:20;101366.72;;;21.01;81.65
16580;BME280;8402;51.466;6.806;2023-08-24T04:37:50;101353.22;;;20.96;81.76
16580;BME280;8402;51.466;6.806;2023-08-24T04:40:20;101340.06;;;20.86;82.39
16580;BME280;8402;51.466;6.806;2023-08-24T04:42:53;101328.16;;;20.82;83.24
16580;BME280;8402;51.466;6.806;2023-08-24T04:45:23;101315.16;;;20.82;82.93
16580;BME280;8402;51.466;6.806;2023-08-24T04:47:53;101312.38;;;20.79;83.36
16580;BME280;8402;51.466;6.806;2023-08-24T04:50:23;101305.69;;;20.80;83.63
16580;BME280;8402;51.466;6.806;2023-08-24T04:52:53;101299.00;;;20.81;83.45
16580;BME280;8402;51.466;6.806;2023-08-24T04:55:23;101312.78;;;20.81;83.84
16580;BME280;8402;51.466;6.806;2023-08-24T04:57:55;101303.66;;;20.77;84.38
16580;BME280;8402;51.466;6.806;2023-08-24T05:00:25;101285.09;;;20.74;84.33
16580;BME280;8402;51.466;6.806;2023-08-24T05:02:55;101285.47;;;20.72;85.10
16580;BME280;8402;51.466;6.806;2023-08-24T05:05:24;101288.56;;;20.71;85.39
16580;BME280;8402;51.466;6.806;2023-08-24T05:07:54;101282.34;;;20.74;85.19
16580;BME280;8402;51.466;6.806;2023-08-24T05:10:24;101280.31;;;20.71;85.94
16580;BME280;8402;51.466;6.806;2023-08-24T05:12:57;101272.09;;;20.74;86.02
16580;BME280;8402;51.466;6.806;2023-08-24T05:15:27;101266.50;;;20.71;85.98
16580;BME280;8402;51.466;6.806;2023-08-24T05:17:57;101258.69;;;20.73;85.42
16580;BME280;8402;51.466;6.806;2023-08-24T05:20:27;101248.50;;;20.77;85.29
16580;BME280;8402;51.466;6.806;2023-08-24T05:22:57;101243.09;;;20.84;85.40
16580;BME280;8402;51.466;6.806;2023-08-24T05:25:27;101238.44;;;20.88;85.04
16580;BME280;8402;51.466;6.806;2023-08-24T05:28:00;101238.47;;;20.92;84.80
16580;BME280;8402;51.466;6.806;2023-08-24T05:30:30;101242.47;;;20.94;84.84
16580;BME280;8402;51.466;6.806;2023-08-24T05:33:00;101251.16;;;20.96;84.69
16580;BME280;8402;51.466;6.806;2023-08-24T05:35:30;101270.88;;;20.98;84.63
16580;BME280;8402;51.466;6.806;2023-08-24T05:37:59;101269.34;;;21.01;84.38
16580;BME280;8402;51.466;6.806;2023-08-24T05:40:29;101270.16;;;21.01;84.62
16580;BME280;8402;51.466;6.806;2023-08-24T05:43:02;101270.94;;;21.02;84.46
16580;BME280;8402;51.466;6.806;2023-08-24T05:45:32;101273.69;;;21.02;84.95
16580;BME280;8402;51.466;6.806;2023-08-24T05:48:02;101268.53;;;21.00;84.89
16580;BME280;8402;51.466;6.806;2023-08-24T05:50:32;101279.94;;;20.99;84.35
16580;BME280;8402;51.466;6.806;2023-08-24T05:53:02;101269.69;;;20.99;84.61
16580;BME280;8402;51.466;6.806;2023-08-24T05:55:32;101276.81;;;21.00;84.35
16580;BME280;8402;51.466;6.806;2023-08-24T05:58:05;101285.09;;;21.00;84.25
16580;BME280;8402;51.466;6.806;2023-08-24T06:00:34;101285.44;;;20.95;85.11
16580;BME280;8402;51.466;6.806;2023-08-24T06:03:04;101293.69;;;20.95;85.05
16580;BME280;8402;51.466;6.806;2023-08-24T06:05:34;101289.34;;;20.94;85.01
16580;BME280;8402;51.466;6.806;2023-08-24T06:08:05;101277.88;;;20.92;85.19
16580;BME280;8402;51.466;6.806;2023-08-24T06:10:35;101275.88;;;20.89;85.56
16580;BME280;8402;51.466;6.806;2023-08-24T06:13:07;101269.16;;;20.86;85.86
16580;BME280;8402;51.466;6.806;2023-08-24T06:15:37;101269.97;;;20.91;85.84
16580;BME280;8402;51.466;6.806;2023-08-24T06:18:07;101271.56;;;20.92;86.12
16580;BME280;8402;51.466;6.806;2023-08-24T06:20:37;101269.25;;;20.94;86.32
16580;BME280;8402;51.466;6.806;2023-08-24T06:23:07;101284.25;;;20.96;86.27
16580;BME280;8402;51.466;6.806;2023-08-24T06:25:37;101273.25;;;21.00;86.31
16580;BME280;8402;51.466;6.806;2023-08-24T06:28:10;101270.88;;;20.98;86.26
16580;BME280;8402;51.466;6.806;2023-08-24T06:30:40;101270.94;;;21.02;86.97
16580;BME280;8402;51.466;6.806;2023-08-24T06:33:12;101261.72;;;21.21;86.67
16580;BME280;8402;51.466;6.806;2023-08-24T06:35:42;101260.03;;;21.39;86.45
16580;BME280;8402;51.466;6.806;2023-08-24T06:38:13;101266.56;;;21.57;86.54
16580;BME280;8402;51.466;6.806;2023-08-24T06:40:43;101260.13;;;21.80;86.14
16580;BME280;8402;51.466;6.806;2023-08-24T06:43:15;101254.84;;;22.01;85.60
16580;BME280;8402;51.466;6.806;2023-08-24T06:45:45;101248.78;;;22.25;85.96
16580;BME280;8402;51.466;6.806;2023-08-24T06:48:15;101245.78;;;22.45;85.12
16580;BME280;8402;51.466;6.806;2023-08-24T06:50:45;101249.06;;;22.61;84.71
16580;BME280;8402;51.466;6.806;2023-08-24T06:53:15;101243.75;;;22.86;84.61
16580;BME280;8402;51.466;6.806;2023-08-24T06:55:45;101236.38;;;23.12;83.40
16580;BME280;8402;51.466;6.806;2023-08-24T06:58:17;101237.66;;;23.35;83.28
16580;BME280;8402;51.466;6.806;2023-08-24T07:00:50;101225.91;;;23.60;82.67
16580;BME280;8402;51.466;6.806;2023-08-24T07:03:21;101230.72;;;23.84;82.17
16580;BME280;8402;51.466;6.806;2023-08-24T07:05:51;101226.03;;;24.10;80.63
16580;BME280;8402;51.466;6.806;2023-08-24T07:08:21;101234.38;;;24.35;79.12
16580;BME280;8402;51.466;6.806;2023-08-24T07:10:50;101232.38;;;24.57;77.54
16580;BME280;8402;51.466;6.806;2023-08-24T07:13:23;101236.31;;;24.81;76.34
16580;BME280;8402;51.466;6.806;2023-08-24T07:15:53;101229.53;;;24.99;75.04
16580;BME280;8402;51.466;6.806;2023-08-24T07:18:23;101230.72;;;25.16;73.17
16580;BME280;8402;51.466;6.806;2023-08-24T07:20:54;101229.84;;;25.34;73.06
16580;BME280;8402;51.466;6.806;2023-08-24T07:23:24;101226.56;;;25.57;72.76
16580;BME280;8402;51.466;6.806;2023-08-24T07:25:54;101209.78;;;25.78;72.26
16580;BME280;8402;51.466;6.806;2023-08-24T07:28:26;101208.88;;;25.95;71.94
16580;BME280;8402;51.466;6.806;2023-08-24T07:30:56;101209.16;;;26.15;71.69
16580;BME280;8402;51.466;6.806;2023-08-24T07:33:27;101203.41;;;26.33;70.73
16580;BME280;8402;51.466;6.806;2023-08-24T07:35:56;101194.91;;;26.54;70.07
16580;BME280;8402;51.466;6.806;2023-08-24T07:38:31;101184.00;;;26.71;69.04
16580;BME280;8402;51.466;6.806;2023-08-24T07:41:01;101180.59;;;26.90;69.23
16580;BME280;8402;51.466;6.806;2023-08-24T07:43:33;101175.22;;;27.10;68.53
16580;BME280;8402;51.466;6.806;2023-08-24T07:46:04;101179.41;;;27.25;69.03
16580;BME280;8402;51.466;6.806;2023-08-24T07:48:35;101174.00;;;27.41;67.56
16580;BME280;8402;51.466;6.806;2023-08-24T07:51:05;101174.69;;;27.49;66.78
16580;BME280;8402;51.466;6.806;2023-08-24T07:53:35;101189.81;;;27.52;66.70
16580;BME280;8402;51.466;6.806;2023-08-24T07:56:05;101191.59;;;27.65;66.39
16580;BME280;8402;51.466;6.806;2023-08-24T07:58:37;101211.56;;;27.91;66.47
16580;BME280;8402;51.466;6.806;2023-08-24T08:01:07;101208.41;;;28.12;64.90
16580;BME280;8402;51.466;6.806;2023-08-24T08:03:37;101216.41;;;28.37;64.45
16580;BME280;8402;51.466;6.806;2023-08-24T08:06:07;101226.31;;;28.65;62.80
16580;BME280;8402;51.466;6.806;2023-08-24T08:08:37;101216.28;;;28.88;62.43
16580;BME280;8402;51.466;6.806;2023-08-24T08:11:07;101210.22;;;29.13;62.13
16580;BME280;8402;51.466;6.806;2023-08-24T08:13:39;101206.69;;;29.28;58.05
16580;BME280;8402;51.466;6.806;2023-08-24T08:16:09;101205.13;;;29.27;57.88
16580;BME280;8402;51.466;6.806;2023-08-24T08:18:39;101189.88;;;29.32;58.94
16580;BME280;8402;51.466;6.806;2023-08-24T08:21:09;101190.50;;;29.40;56.96
16580;BME280;8402;51.466;6.806;2023-08-24T08:23:40;101186.00;;;29.26;57.10
16580;BME280;8402;51.466;6.806;2023-08-24T08:26:11;101186.97;;;29.36;58.15
16580;BME280;8402;51.466;6.806;2023-08-24T08:28:43;101183.19;;;29.46;57.31
16580;BME280;8402;51.466;6.806;2023-08-24T08:31:13;101172.56;;;29.57;57.18
16580;BME280;8402;51.466;6.806;2023-08-24T08:33:50;101171.44;;;29.71;57.27
16580;BME280;8402;51.466;6.806;2023-08-24T08:36:23;101167.63;;;29.81;56.64
16580;BME280;8402;51.466;6.806;2023-08-24T08:38:53;101170.34;;;30.01;56.79
16580;BME280;8402;51.466;6.806;2023-08-24T08:41:25;101165.75;;;30.07;56.49
16580;BME280;8402;51.466;6.806;2023-08-24T08:43:59;101159.94;;;30.18;54.57
16580;BME280;8402;51.466;6.806;2023-08-24T08:46:29;101163.66;;;30.27;55.14
16580;BME280;8402;51.466;6.806;2023-08-24T08:49:00;101161.25;;;30.13;53.05
16580;BME280;8402;51.466;6.806;2023-08-24T08:51:31;101164.19;;;30.06;54.61
16580;BME280;8402;51.466;6.806;2023-08-24T08:54:03;101149.22;;;30.29;54.84
16580;BME280;8402;51.466;6.806;2023-08-24T08:56:35;101146.09;;;30.56;55.50
16580;BME280;8402;51.466;6.806;2023-08-24T08:59:09;101155.28;;;30.73;54.30
16580;BME280;8402;51.466;6.806;2023-08-24T09:01:41;101151.63;;;30.88;54.46
16580;BME280;8402;51.466;6.806;2023-08-24T09:04:12;101138.88;;;31.00;53.47
16580;BME280;8402;51.466;6.806;2023-08-24T09:06:43;101124.22;;;31.09;53.07
16580;BME280;8402;51.466;6.806;2023-08-24T09:09:13;101125.72;;;31.26;53.26
16580;BME280;8402;51.466;6.806;2023-08-24T09:11:44;101121.06;;;31.19;51.83
16580;BME280;8402;51.466;6.806;2023-08-24T09:14:18;101111.13;;;31.31;52.61
16580;BME280;8402;51.466;6.806;2023-08-24T09:16:47;101115.63;;;31.41;50.42
16580;BME280;8402;51.466;6.806;2023-08-24T09:19:19;101108.44;;;31.53;50.85
16580;BME280;8402;51.466;6.806;2023-08-24T09:21:58;101098.53;;;31.74;49.39
16580;BME280;8402;51.466;6.806;2023-08-24T09:24:31;101084.38;;;31.90;49.13
16580;BME280;8402;51.466;6.806;2023-08-24T09:27:14;101075.75;;;31.85;48.39
16580;BME280;8402;51.466;6.806;2023-08-24T09:29:50;101068.31;;;31.91;49.46
16580;BME280;8402;51.466;6.806;2023-08-24T09:32:27;101056.06;;;31.97;49.45
16580;BME280;8402;51.466;6.806;2023-08-24T09:35:02;101055.00;;;31.82;48.53
16580;BME280;8402;51.466;6.806;2023-08-24T09:37:33;101053.66;;;31.74;48.29
16580;BME280;8402;51.466;6.806;2023-08-24T09:40:06;101051.16;;;31.76;49.59
16580;BME280;8402;51.466;6.806;2023-08-24T09:42:39;101042.66;;;31.67;47.81
16580;BME280;8402;51.466;6.806;2023-08-24T09:45:14;101024.03;;;31.73;48.75
16580;BME280;8402;51.466;6.806;2023-08-24T09:47:49;101020.56;;;31.69;47.63
16580;BME280;8402;51.466;6.806;2023-08-24T09:50:23;101025.09;;;31.54;47.58
16580;BME280;8402;51.466;6.806;2023-08-24T09:52:56;101024.94;;;31.57;48.83
16580;BME280;8402;51.466;6.806;2023-08-24T09:55:33;101019.06;;;31.77;48.94
16580;BME280;8402;51.466;6.806;2023-08-24T09:58:09;101025.69;;;31.83;47.09
16580;BME280;8402;51.466;6.806;2023-08-24T10:00:45;101033.63;;;31.97;47.88
16580;BME280;8402;51.466;6.806;2023-08-24T10:03:18;101042.53;;;32.18;48.16
16580;BME280;8402;51.466;6.806;2023-08-24T10:05:51;101058.44;;;32.21;46.47
16580;BME280;8402;51.466;6.806;2023-08-24T10:08:29;101057.13;;;32.13;46.42
16580;BME280;8402;51.466;6.806;2023-08-24T10:11:02;101057.78;;;32.17;46.64
16580;BME280;8402;51.466;6.806;2023-08-24T10:13:44;101060.00;;;32.22;46.66
16580;BME280;8402;51.466;6.806;2023-08-24T10:16:21;101065.63;;;32.22;46.81
16580;BME280;8402;51.466;6.806;2023-08-24T10:18:52;101064.34;;;32.36;46.18
16580;BME280;8402;51.466;6.806;2023-08-24T10:21:23;101064.88;;;32.43;45.36
16580;BME280;8402;51.466;6.806;2023-08-24T10:23:56;101075.31;;;32.43;45.52
16580;BME280;8402;51.466;6.806;2023-08-24T10:26:26;101063.19;;;32.46;46.79
16580;BME280;8402;51.466;6.806;2023-08-24T10:28:57;101066.81;;;32.55;47.61
16580;BME280;8402;51.466;6.806;2023-08-24T10:31:31;101064.22;;;32.61;46.71
16580;BME280;8402;51.466;6.806;2023-08-24T10:34:01;101064.34;;;32.57;45.54
16580;BME280;8402;51.466;6.806;2023-08-24T10:36:32;101069.97;;;32.57;46.39
16580;BME280;8402;51.466;6.806;2023-08-24T10:39:03;101067.50;;;32.59;46.26
16580;BME280;8402;51.466;6.806;2023-08-24T10:41:47;101070.63;;;32.62;45.96
16580;BME280;8402;51.466;6.806;2023-08-24T10:44:21;101076.25;;;32.62;43.71
16580;BME280;8402;51.466;6.806;2023-08-24T10:47:10;101076.13;;;32.65;45.64
16580;BME280;8402;51.466;6.806;2023-08-24T10:49:42;101062.38;;;32.67;46.01
16580;BME280;8402;51.466;6.806;2023-08-24T10:52:22;101066.28;;;32.70;45.43
16580;BME280;8402;51.466;6.806;2023-08-24T10:54:53;101063.03;;;32.71;46.44
16580;BME280;8402;51.466;6.806;2023-08-24T10:57:24;101069.56;;;32.68;43.85
16580;BME280;8402;51.466;6.806;2023-08-24T11:00:03;101064.72;;;32.69;45.41
16580;BME280;8402;51.466;6.806;2023-08-24T11:02:46;101057.41;;;32.49;45.43
16580;BME280;8402;51.466;6.806;2023-08-24T11:05:21;101057.78;;;32.51;44.92
16580;BME280;8402;51.466;6.806;2023-08-24T11:07:53;101052.16;;;32.51;45.61
16580;BME280;8402;51.466;6.806;2023-08-24T11:10:24;101055.59;;;32.55;45.72
16580;BME280;8402;51.466;6.806;2023-08-24T11:13:08;101047.63;;;32.54;44.69
16580;BME280;8402;51.466;6.806;2023-08-24T11:15:40;101041.88;;;32.57;45.90
16580;BME280;8402;51.466;6.806;2023-08-24T11:18:23;101027.13;;;32.44;46.73
16580;BME280;8402;51.466;6.806;2023-08-24T11:20:54;101031.81;;;32.47;46.17
16580;BME280;8402;51.466;6.806;2023-08-24T11:23:25;101023.72;;;32.49;47.38
16580;BME280;8402;51.466;6.806;2023-08-24T11:25:58;101010.13;;;32.48;47.16
16580;BME280;8402;51.466;6.806;2023-08-24T11:28:30;101008.06;;;32.39;47.51
16580;BME280;8402;51.466;6.806;2023-08-24T11:31:00;101019.41;;;32.36;47.70
16580;BME280;8402;51.466;6.806;2023-08-24T11:33:33;101021.25;;;32.29;47.70
16580;BME280;8402;51.466;6.806;2023-08-24T11:36:04;101026.19;;;32.25;48.23
16580;BME280;8402;51.466;6.806;2023-08-24T11:38:38;101034.28;;;32.23;48.10
16580;BME280;8402;51.466;6.806;2023-08-24T11:41:12;101040.03;;;32.20;48.13
16580;BME280;8402;51.466;6.806;2023-08-24T11:43:43;101054.91;;;32.08;47.79
16580;BME280;8402;51.466;6.806;2023-08-24T11:46:15;101071.03;;;31.94;48.00
16580;BME280;8402;51.466;6.806;2023-08-24T11:48:48;101067.22;;;31.88;48.93
16580;BME280;8402;51.466;6.806;2023-08-24T11:51:18;101062.75;;;31.78;48.91
16580;BME280;8402;51.466;6.806;2023-08-24T11:54:07;101062.00;;;31.52;48.31
16580;BME280;8402;51.466;6.806;2023-08-24T11:56:41;101046.75;;;31.40;49.54
16580;BME280;8402;51.466;6.806;2023-08-24T11:59:13;101048.00;;;31.39;49.68
16580;BME280;8402;51.466;6.806;2023-08-24T12:01:45;101040.00;;;31.50;49.86
16580;BME280;8402;51.466;6.806;2023-08-24T12:04:17;101040.22;;;31.56;50.23
16580;BME280;8402;51.466;6.806;2023-08-24T12:06:48;101052.81;;;31.52;49.96
16580;BME280;8402;51.466;6.806;2023-08-24T12:09:18;101061.53;;;31.54;50.46
16580;BME280;8402;51.466;6.806;2023-08-24T12:11:48;101048.09;;;31.48;49.89
16580;BME280;8402;51.466;6.806;2023-08-24T12:14:17;101040.13;;;31.47;50.18
16580;BME280;8402;51.466;6.806;2023-08-24T12:16:47;101031.03;;;31.43;49.78
16580;BME280;8402;51.466;6.806;2023-08-24T12:19:22;101019.16;;;31.39;49.92
16580;BME280;8402;51.466;6.806;2023-08-24T12:21:52;101006.56;;;31.43;50.96
16580;BME280;8402;51.466;6.806;2023-08-24T12:24:22;100994.00;;;31.48;50.95
16580;BME280;8402;51.466;6.806;2023-08-24T12:26:55;100993.91;;;31.52;50.12
16580;BME280;8402;51.466;6.806;2023-08-24T12:29:27;100973.94;;;31.49;50.80
16580;BME280;8402;51.466;6.806;2023-08-24T12:31:57;100971.78;;;31.54;51.35
16580;BME280;8402;51.466;6.806;2023-08-24T12:34:30;100958.66;;;31.50;51.04
16580;BME280;8402;51.466;6.806;2023-08-24T12:37:00;100939.63;;;31.45;50.85
16580;BME280;8402;51.466;6.806;2023-08-24T12:39:35;100932.34;;;31.35;51.94
16580;BME280;8402;51.466;6.806;2023-08-24T12:42:05;100920.38;;;31.22;52.87
16580;BME280;8402;51.466;6.806;2023-08-24T12:44:35;100916.47;;;31.07;53.70
16580;BME280;8402;51.466;6.806;2023-08-24T12:47:05;100926.50;;;30.95;54.87
16580;BME280;8402;51.466;6.806;2023-08-24T12:49:38;100925.56;;;30.98;55.80
16580;BME280;8402;51.466;6.806;2023-08-24T12:52:07;100911.22;;;30.96;56.16
16580;BME280;8402;51.466;6.806;2023-08-24T12:54:37;100905.09;;;30.88;56.65
16580;BME280;8402;51.466;6.806;2023-08-24T12:57:07;100897.38;;;30.80;57.35
16580;BME280;8402;51.466;6.806;2023-08-24T12:59:37;100894.56;;;30.80;58.11
16580;BME280;8402;51.466;6.806;2023-08-24T13:02:07;100885.25;;;30.83;59.45
16580;BME280;8402;51.466;6.806;2023-08-24T13:04:53;100880.75;;;30.85;59.36
16580;BME280;8402;51.466;6.806;2023-08-24T13:07:23;100879.78;;;30.79;58.21
16580;BME280;8402;51.466;6.806;2023-08-24T13:09:52;100884.16;;;30.67;59.32
16580;BME280;8402;51.466;6.806;2023-08-24T13:12:22;100887.03;;;30.64;59.19
16580;BME280;8402;51.466;6.806;2023-08-24T13:14:52;100899.25;;;30.70;59.95
16580;BME280;8402;51.466;6.806;2023-08-24T13:17:22;100917.63;;;30.71;60.19
16580;BME280;8402;51.466;6.806;2023-08-24T13:19:55;100917.63;;;30.46;59.45
16580;BME280;8402;51.466;6.806;2023-08-24T13:22:25;100905.06;;;30.25;58.82